Погода Староседлена 2 недели

Любушское воеводство, Польша

16 - 29 июля
  • 16июля
    Сегодня
    +14°
    +27°
    Небольшая облачность, ливень
    ВремяПогодаТемператураВлажностьДавлениеВетер, м/сВероятность осадков
    02:00Облачно с прояснениями+19°C68 %754 мм2.5 м/с2 %
    05:00Небольшая облачность+18°C75 %753 мм2.3 м/с2 %
    08:00Пасмурно, дождь+21°C92 %754 мм2.7 м/с73 %
    11:00Пасмурно, дождь+21°C92 %755 мм3.4 м/с81 %
    14:00Небольшая облачность, ливень+25°C68 %754 мм3.0 м/с61 %
    17:00Ясно и безоблачно+27°C49 %754 мм4.2 м/с12 %
    20:00Практически безоблачно+25°C53 %755 мм2.9 м/с8 %
    23:00Ясно и безоблачно+19°C65 %756 мм2.1 м/с1 %
  • 17июля
    Среда
    +12°
    +25°
    Облачно с прояснениями
    ВремяПогодаТемператураВлажностьДавлениеВетер, м/сВероятность осадков
    02:00Ясно и безоблачно+17°C67 %757 мм3.1 м/с2 %
    05:00Ясно и безоблачно+15°C68 %758 мм3.4 м/с2 %
    08:00Облачно с прояснениями+19°C67 %760 мм3.1 м/с2 %
    11:00Небольшая облачность+23°C55 %760 мм4.4 м/с2 %
    14:00Облачно с прояснениями+25°C46 %760 мм5.5 м/с3 %
    17:00Небольшая облачность+24°C47 %760 мм4.7 м/с2 %
    20:00Облачно с прояснениями+22°C56 %761 мм2.5 м/с2 %
    23:00Ясно и безоблачно+17°C69 %761 мм2.2 м/с2 %
  • 18июля
    Четверг
    +15°
    +27°
    Облачно с прояснениями
    ВремяПогодаТемператураВлажностьДавлениеВетер, м/сВероятность осадков
    02:00Ясно и безоблачно+15°C78 %762 мм2.0 м/с2 %
    05:00Ясно и безоблачно+13°C88 %762 мм1.7 м/с2 %
    08:00Ясно и безоблачно+19°C77 %763 мм1.6 м/с2 %
    11:00Ясно и безоблачно+23°C61 %763 мм2.6 м/с2 %
    14:00Облачно с прояснениями+25°C52 %763 мм2.3 м/с3 %
    17:00Практически безоблачно+26°C48 %762 мм1.5 м/с2 %
    20:00Облачно с прояснениями+24°C68 %762 мм1.1 м/с2 %
    23:00Облачно с прояснениями+19°C72 %762 мм1.8 м/с2 %
  • 19июля
    Пятница
    +14°
    +29°
    Небольшая облачность
    ВремяПогодаТемператураВлажностьДавлениеВетер, м/сВероятность осадков
    02:00Облачно с прояснениями+17°C82 %762 мм1.7 м/с2 %
    05:00Ясно и безоблачно+15°C87 %762 мм1.8 м/с2 %
    08:00Ясно и безоблачно+20°C73 %762 мм0.6 м/с2 %
    11:00Ясно и безоблачно+25°C49 %762 мм0.8 м/с2 %
    14:00Небольшая облачность+28°C40 %761 мм1.4 м/с6 %
    17:00Небольшая облачность+29°C41 %760 мм2.3 м/с7 %
    20:00Ясно и безоблачно+25°C65 %760 мм2.3 м/с2 %
    23:00Ясно и безоблачно+20°C66 %760 мм1.8 м/с2 %
  • 20июля
    Суббота
    +16°
    +30°
    Ясно и безоблачно
    ВремяПогодаТемператураВлажностьДавлениеВетер, м/сВероятность осадков
    02:00Ясно и безоблачно+18°C74 %760 мм2.2 м/с2 %
    05:00Ясно и безоблачно+17°C84 %760 мм2.1 м/с2 %
    08:00Ясно и безоблачно+21°C75 %759 мм1.6 м/с2 %
    11:00Ясно и безоблачно+27°C52 %759 мм1.2 м/с2 %
    14:00Ясно и безоблачно+29°C40 %758 мм1.3 м/с11 %
    17:00Ясно и безоблачно+30°C38 %757 мм2.3 м/с6 %
    20:00Ясно и безоблачно+27°C50 %756 мм2.7 м/с5 %
    23:00Ясно и безоблачно+22°C57 %756 мм3.2 м/с2 %
Мы используем cookies
Соглашаюсь